Time;durP1;ratioP1;P1;durP2;ratioP2;P2;SDS_P1;SDS_P2;PMS_P1;PMS_P2;Temp;Humidity;BMP_temperature;BMP_pressure;BME280_temperature;BME280_humidity;BME280_pressure;Samples;Min_cycle;Max_cycle;Signal;HPM_P1;HPM_P2
2022/07/09 00:00:57;;;;;;;2.65;1.75;;;21.90;63.40;;;;;;10356693;28;20088;-54
2022/07/09 00:05:58;;;;;;;1.80;1.35;;;21.90;63.60;;;;;;10372769;28;20042;-56
2022/07/09 00:10:59;;;;;;;2.22;1.75;;;21.90;63.50;;;;;;10373737;28;20105;-55
2022/07/09 00:15:59;;;;;;;2.35;1.83;;;21.90;63.40;;;;;;10373705;28;20385;-56
2022/07/09 00:21:00;;;;;;;2.08;1.70;;;21.90;63.60;;;;;;10385294;28;20366;-55
2022/07/09 00:26:01;;;;;;;2.58;1.80;;;21.90;63.40;;;;;;10373047;28;20036;-56
2022/07/09 00:31:01;;;;;;;2.38;1.65;;;21.90;63.20;;;;;;10372487;28;20030;-56
2022/07/09 00:36:02;;;;;;;3.38;1.90;;;21.90;63.10;;;;;;10375329;28;20060;-54
2022/07/09 00:41:03;;;;;;;2.40;1.40;;;21.90;63.20;;;;;;10382693;28;20504;-56
2022/07/09 00:46:04;;;;;;;3.85;2.55;;;21.90;63.50;;;;;;10384645;28;20033;-55
2022/07/09 00:51:05;;;;;;;2.03;1.50;;;21.90;63.40;;;;;;10392617;28;20024;-56
2022/07/09 00:56:06;;;;;;;2.85;2.05;;;21.90;63.30;;;;;;10392473;28;20084;-56
2022/07/09 01:01:07;;;;;;;2.47;2.00;;;21.90;63.50;;;;;;10371487;28;20088;-56
2022/07/09 01:06:08;;;;;;;2.40;1.75;;;21.80;63.30;;;;;;10371452;28;20030;-56
2022/07/09 01:11:09;;;;;;;3.15;2.33;;;21.90;63.20;;;;;;10370187;28;20488;-55
2022/07/09 01:16:14;;;;;;;2.03;1.70;;;21.90;63.50;;;;;;10383128;28;20025;-56
2022/07/09 01:21:15;;;;;;;2.42;1.88;;;21.80;63.40;;;;;;10371089;28;20417;-55
2022/07/09 01:26:19;;;;;;;2.30;1.90;;;21.80;63.50;;;;;;10370709;28;20130;-56
2022/07/09 01:31:20;;;;;;;2.40;1.85;;;21.80;64.10;;;;;;10387664;28;20064;-54
2022/07/09 01:36:21;;;;;;;2.67;2.03;;;21.80;63.50;;;;;;10390298;28;20041;-55
2022/07/09 01:41:21;;;;;;;3.92;1.98;;;21.80;63.30;;;;;;10382227;28;20065;-56
2022/07/09 01:46:22;;;;;;;2.67;2.22;;;21.80;63.20;;;;;;10382006;28;20113;-56
2022/07/09 01:51:23;;;;;;;2.70;1.92;;;21.80;63.30;;;;;;10403250;28;20072;-56
2022/07/09 01:56:23;;;;;;;2.30;2.10;;;21.80;63.50;;;;;;10381697;28;20030;-56
2022/07/09 02:01:24;;;;;;;2.20;1.80;;;21.80;63.50;;;;;;10368539;28;20034;-56
2022/07/09 02:06:25;;;;;;;2.25;2.00;;;21.80;63.50;;;;;;10369062;28;20172;-56
2022/07/09 02:11:26;;;;;;;2.63;1.85;;;21.80;63.50;;;;;;10368674;28;20465;-56
2022/07/09 02:16:26;;;;;;;1.92;1.58;;;21.80;63.40;;;;;;10384949;28;20527;-56
2022/07/09 02:21:27;;;;;;;2.65;1.85;;;21.80;63.20;;;;;;10378586;28;20030;-56
2022/07/09 02:26:29;;;;;;;2.45;2.10;;;21.80;63.10;;;;;;10380670;28;20468;-56
2022/07/09 02:31:29;;;;;;;1.83;1.70;;;21.80;63.30;;;;;;10367552;28;20053;-56
2022/07/09 02:36:30;;;;;;;2.25;1.77;;;21.80;63.30;;;;;;10367122;28;20082;-55
2022/07/09 02:41:31;;;;;;;2.35;1.80;;;21.70;63.50;;;;;;10366996;28;20109;-56
2022/07/09 02:46:31;;;;;;;3.53;1.73;;;21.70;63.30;;;;;;10393055;28;20095;-54
2022/07/09 02:51:32;;;;;;;2.75;2.30;;;21.80;63.40;;;;;;10396220;28;20037;-56
2022/07/09 02:56:33;;;;;;;3.65;2.08;;;21.70;63.10;;;;;;10395186;28;20030;-55
2022/07/09 03:01:34;;;;;;;3.17;1.95;;;21.70;63.00;;;;;;10397532;28;20104;-55
2022/07/09 03:06:34;;;;;;;2.80;1.83;;;21.70;63.00;;;;;;10367770;28;20030;-54
2022/07/09 03:11:35;;;;;;;2.75;1.90;;;21.70;63.30;;;;;;10381103;28;20030;-55
2022/07/09 03:16:36;;;;;;;2.88;1.67;;;21.70;63.30;;;;;;10396594;28;20040;-56
2022/07/09 03:21:36;;;;;;;3.33;1.63;;;21.70;63.40;;;;;;10392631;28;20042;-55
2022/07/09 03:26:37;;;;;;;2.15;1.83;;;21.70;63.30;;;;;;10371133;28;20113;-55
2022/07/09 03:31:38;;;;;;;2.50;1.95;;;21.70;63.20;;;;;;10387949;28;20076;-56
2022/07/09 03:36:39;;;;;;;2.55;2.20;;;21.70;63.10;;;;;;10386830;28;20050;-54
2022/07/09 03:41:39;;;;;;;2.45;1.75;;;21.70;63.10;;;;;;10356721;28;20112;-56
2022/07/09 03:46:40;;;;;;;4.18;2.13;;;21.70;63.10;;;;;;10408197;28;20041;-55
2022/07/09 03:51:42;;;;;;;2.83;1.85;;;21.70;63.20;;;;;;10382493;28;20030;-56
2022/07/09 03:56:43;;;;;;;2.78;2.33;;;21.70;63.30;;;;;;10382461;28;20047;-56
2022/07/09 04:01:44;;;;;;;2.40;1.95;;;21.70;63.20;;;;;;10378212;28;20037;-56
2022/07/09 04:06:44;;;;;;;2.13;1.90;;;21.70;63.30;;;;;;10395382;28;20625;-55
2022/07/09 04:11:45;;;;;;;2.20;1.83;;;21.70;63.10;;;;;;10393157;28;20109;-54
2022/07/09 04:16:46;;;;;;;3.17;2.17;;;21.70;62.90;;;;;;10393608;28;20037;-54
2022/07/09 04:21:47;;;;;;;3.30;2.47;;;21.70;62.90;;;;;;10393077;28;20030;-55
2022/07/09 04:26:48;;;;;;;2.53;2.28;;;21.70;63.00;;;;;;10391299;28;20033;-55
2022/07/09 04:31:48;;;;;;;5.03;3.22;;;21.70;63.10;;;;;;10396984;28;20401;-56
2022/07/09 04:36:49;;;;;;;3.40;3.10;;;21.70;63.40;;;;;;10398573;28;20057;-56
2022/07/09 04:41:51;;;;;;;3.67;3.38;;;21.70;63.40;;;;;;10398828;28;20357;-56
2022/07/09 04:46:51;;;;;;;4.40;4.00;;;21.70;63.40;;;;;;10382864;28;20038;-56
2022/07/09 04:51:52;;;;;;;5.32;4.93;;;21.70;64.30;;;;;;10403047;28;20033;-56
2022/07/09 04:56:53;;;;;;;5.80;5.30;;;21.70;63.70;;;;;;10397479;28;20816;-55
2022/07/09 05:01:54;;;;;;;5.90;5.40;;;21.80;64.30;;;;;;10410469;28;20132;-55
2022/07/09 05:06:54;;;;;;;6.90;6.30;;;21.70;63.80;;;;;;10382354;28;20495;-53
2022/07/09 05:11:55;;;;;;;10.18;7.20;;;21.80;64.90;;;;;;10369785;28;20037;-53
2022/07/09 05:16:56;;;;;;;8.43;7.57;;;21.80;65.40;;;;;;10368782;28;20500;-51
2022/07/09 05:21:57;;;;;;;10.70;6.32;;;21.90;65.60;;;;;;10376401;28;20240;-52
2022/07/09 05:26:57;;;;;;;8.07;6.32;;;21.80;65.90;;;;;;10396036;28;20036;-53
2022/07/09 05:31:58;;;;;;;7.18;6.38;;;21.90;66.00;;;;;;10395671;28;20040;-54
2022/07/09 05:36:59;;;;;;;11.88;6.18;;;21.90;66.30;;;;;;10381986;28;20132;-52
2022/07/09 05:42:00;;;;;;;9.77;6.07;;;21.90;66.20;;;;;;10381857;28;20068;-55
2022/07/09 05:47:01;;;;;;;8.48;5.53;;;21.90;66.20;;;;;;10371397;28;20022;-57
2022/07/09 05:52:02;;;;;;;10.45;5.20;;;21.90;66.20;;;;;;10378792;28;20476;-56
2022/07/09 05:57:03;;;;;;;15.00;5.85;;;21.90;66.30;;;;;;10374236;28;20026;-56
2022/07/09 06:02:05;;;;;;;15.15;5.97;;;21.90;66.30;;;;;;10398722;28;20033;-53
2022/07/09 06:07:06;;;;;;;12.13;5.80;;;21.90;66.10;;;;;;10408234;28;20104;-55
2022/07/09 06:12:07;;;;;;;19.48;6.90;;;21.90;66.10;;;;;;10390063;28;20034;-55
2022/07/09 06:17:08;;;;;;;18.33;7.00;;;21.90;66.40;;;;;;10380730;28;20477;-55
2022/07/09 06:22:08;;;;;;;26.20;10.43;;;21.90;66.60;;;;;;10369052;28;20018;-55
2022/07/09 06:27:10;;;;;;;19.05;9.30;;;21.90;67.60;;;;;;10367030;28;20036;-53
2022/07/09 06:32:11;;;;;;;12.05;7.00;;;21.90;67.30;;;;;;10368513;28;20358;-55
2022/07/09 06:37:12;;;;;;;21.90;7.80;;;21.80;66.60;;;;;;10380437;28;20136;-55
2022/07/09 06:42:14;;;;;;;13.07;6.38;;;21.90;67.10;;;;;;10384728;28;20036;-55
2022/07/09 06:47:15;;;;;;;16.98;6.38;;;21.90;66.70;;;;;;10384917;28;20893;-56
2022/07/09 06:52:16;;;;;;;19.52;6.15;;;21.80;67.00;;;;;;10368917;28;20026;-54
2022/07/09 06:57:17;;;;;;;21.63;6.78;;;21.80;67.00;;;;;;10366160;28;20022;-55
2022/07/09 07:02:18;;;;;;;17.92;5.60;;;21.80;67.20;;;;;;10369518;28;20036;-55
2022/07/09 07:07:20;;;;;;;33.80;7.72;;;21.80;67.10;;;;;;10370282;28;20026;-55
2022/07/09 07:12:20;;;;;;;26.48;6.35;;;21.80;67.70;;;;;;10367425;28;20034;-56
2022/07/09 07:17:21;;;;;;;24.17;6.00;;;21.90;67.30;;;;;;10366573;28;20033;-54
2022/07/09 07:22:22;;;;;;;25.30;6.35;;;21.90;67.30;;;;;;10367321;28;20040;-53
2022/07/09 07:27:22;;;;;;;23.30;5.90;;;21.90;67.30;;;;;;10361890;28;20025;-54
2022/07/09 07:32:23;;;;;;;47.95;9.65;;;22.00;67.20;;;;;;10395589;28;20535;-55
2022/07/09 07:37:24;;;;;;;38.72;6.55;;;22.00;67.70;;;;;;10383873;28;20560;-55
2022/07/09 07:42:24;;;;;;;35.70;7.60;;;22.00;67.90;;;;;;10377918;28;20183;-55
2022/07/09 07:47:25;;;;;;;23.02;6.70;;;22.00;67.60;;;;;;10376775;28;20029;-57
2022/07/09 07:52:26;;;;;;;29.30;7.88;;;22.00;67.50;;;;;;10383715;28;20482;-55
2022/07/09 07:57:26;;;;;;;33.88;7.30;;;22.00;67.40;;;;;;10364427;28;20432;-54
2022/07/09 08:02:27;;;;;;;25.15;5.60;;;22.00;67.50;;;;;;10385998;28;20030;-56
2022/07/09 08:07:28;;;;;;;28.23;6.18;;;22.00;67.40;;;;;;10382204;28;20033;-55
2022/07/09 08:12:29;;;;;;;26.40;6.22;;;22.00;67.50;;;;;;10386483;28;20052;-55
2022/07/09 08:17:30;;;;;;;25.02;5.55;;;22.00;67.30;;;;;;10397804;28;20369;-54
2022/07/09 08:22:30;;;;;;;17.92;5.78;;;22.00;67.30;;;;;;10398025;28;20036;-54
2022/07/09 08:27:31;;;;;;;31.55;7.38;;;22.00;67.30;;;;;;10378001;28;20049;-55
2022/07/09 08:32:32;;;;;;;22.48;5.70;;;22.00;67.40;;;;;;10371548;28;20048;-55
2022/07/09 08:37:33;;;;;;;20.55;6.32;;;22.00;67.60;;;;;;10384325;28;20050;-56
2022/07/09 08:42:34;;;;;;;22.85;5.35;;;22.00;67.60;;;;;;10370999;28;20547;-56
2022/07/09 08:47:35;;;;;;;15.00;4.78;;;22.00;67.40;;;;;;10377116;28;20018;-55
2022/07/09 08:52:38;;;;;;;14.93;4.32;;;22.00;67.40;;;;;;10403590;28;20061;-56
2022/07/09 08:57:39;;;;;;;13.52;5.88;;;22.00;67.30;;;;;;10402611;28;20041;-55
2022/07/09 09:02:39;;;;;;;16.08;5.38;;;22.00;67.30;;;;;;10354085;28;20630;-54
2022/07/09 09:07:41;;;;;;;19.35;5.43;;;21.90;67.30;;;;;;10371461;28;20029;-55
2022/07/09 09:12:42;;;;;;;11.25;4.70;;;22.00;67.20;;;;;;10371137;28;20358;-55
2022/07/09 09:17:46;;;;;;;12.93;4.15;;;22.00;67.20;;;;;;10381014;28;20029;-54
2022/07/09 09:22:54;;;;;;;8.73;3.90;;;22.00;67.20;;;;;;10397089;28;20044;-54
2022/07/09 09:27:57;;;;;;;8.25;3.55;;;22.00;67.20;;;;;;10410509;28;20044;-53
2022/07/09 09:33:04;;;;;;;10.63;3.88;;;21.90;67.20;;;;;;10426641;28;20550;-53
2022/07/09 09:38:05;;;;;;;9.88;4.30;;;21.90;67.30;;;;;;10378249;28;20133;-55
2022/07/09 09:43:07;;;;;;;10.45;4.35;;;21.90;67.40;;;;;;10370427;28;20036;-53
2022/07/09 09:48:07;;;;;;;15.68;5.85;;;22.00;67.20;;;;;;10396521;28;20030;-54
2022/07/09 09:53:09;;;;;;;13.68;4.85;;;22.00;67.20;;;;;;10399759;28;20516;-54
2022/07/09 09:58:13;;;;;;;16.85;4.85;;;21.90;67.20;;;;;;10382657;28;20083;-54
2022/07/09 10:03:15;;;;;;;11.60;4.53;;;22.00;67.40;;;;;;10381187;28;20393;-53
2022/07/09 10:08:16;;;;;;;11.80;4.65;;;22.00;67.50;;;;;;10377174;28;20507;-53
2022/07/09 10:13:23;;;;;;;20.13;6.38;;;22.00;67.20;;;;;;10379976;28;20040;-54
2022/07/09 10:18:24;;;;;;;15.45;5.10;;;22.00;67.10;;;;;;10391305;28;20104;-53
2022/07/09 10:23:25;;;;;;;12.18;5.28;;;22.00;67.00;;;;;;10398724;28;20038;-56
2022/07/09 10:28:26;;;;;;;16.35;4.70;;;22.00;67.00;;;;;;10386205;28;20038;-55
2022/07/09 10:33:35;;;;;;;13.27;4.53;;;22.00;67.00;;;;;;10364343;28;20084;-55
2022/07/09 10:38:38;;;;;;;11.10;4.63;;;22.00;66.80;;;;;;10365553;28;20053;-54
2022/07/09 10:43:50;;;;;;;13.48;4.95;;;22.00;66.90;;;;;;10365404;28;20026;-55
2022/07/09 10:48:50;;;;;;;11.65;5.10;;;22.00;67.40;;;;;;10405491;28;20029;-55
2022/07/09 10:53:51;;;;;;;9.23;4.28;;;22.10;66.70;;;;;;10364905;28;20109;-54
2022/07/09 10:58:52;;;;;;;12.05;4.63;;;22.10;66.60;;;;;;10365153;28;20392;-54
2022/07/09 11:03:53;;;;;;;7.15;3.50;;;22.10;66.50;;;;;;10378201;28;20030;-55
2022/07/09 11:08:54;;;;;;;8.77;3.33;;;22.10;66.50;;;;;;10348661;28;20030;-54
2022/07/09 11:13:57;;;;;;;7.32;3.70;;;22.10;66.40;;;;;;10348249;28;20417;-55
2022/07/09 11:18:58;;;;;;;6.72;3.13;;;22.10;66.40;;;;;;10377650;28;20038;-55
2022/07/09 11:23:59;;;;;;;13.15;5.22;;;22.10;66.30;;;;;;10364131;28;20582;-55
2022/07/09 11:28:59;;;;;;;6.38;3.67;;;22.10;66.20;;;;;;10365122;28;20050;-58
2022/07/09 11:34:12;;;;;;;9.30;3.28;;;22.10;66.20;;;;;;10376790;28;20040;-53
2022/07/09 11:39:33;;;;;;;8.85;3.22;;;22.10;66.20;;;;;;10371399;28;20493;-53
2022/07/09 11:44:34;;;;;;;6.90;2.28;;;22.10;66.00;;;;;;10400977;28;20099;-55
2022/07/09 11:49:41;;;;;;;10.75;2.80;;;22.10;65.80;;;;;;10397023;28;20052;-54
2022/07/09 11:55:15;;;;;;;9.30;2.75;;;22.20;65.90;;;;;;10400054;28;20130;-52
2022/07/09 12:00:28;;;;;;;13.20;3.85;;;22.20;65.60;;;;;;10373953;28;20120;-55
2022/07/09 12:05:32;;;;;;;37.47;6.35;;;22.20;65.50;;;;;;10373056;28;20437;-54
2022/07/09 12:10:37;;;;;;;27.85;5.55;;;22.20;66.60;;;;;;10372895;28;20026;-56
2022/07/09 12:15:37;;;;;;;10.85;3.55;;;22.30;66.60;;;;;;10372557;28;20143;-57
2022/07/09 12:20:38;;;;;;;27.30;5.53;;;22.30;65.80;;;;;;10385933;28;20157;-54
2022/07/09 12:25:40;;;;;;;17.98;4.47;;;22.40;66.70;;;;;;10385639;28;20023;-55
2022/07/09 12:30:41;;;;;;;11.73;3.15;;;22.40;65.50;;;;;;10382277;28;20026;-53
2022/07/09 12:35:42;;;;;;;25.00;4.68;;;22.40;64.90;;;;;;10372689;28;20692;-57
2022/07/09 12:40:43;;;;;;;39.90;6.90;;;22.40;63.90;;;;;;10408235;28;20040;-55
2022/07/09 12:45:43;;;;;;;25.88;4.18;;;22.50;63.60;;;;;;10387275;28;20534;-55
2022/07/09 12:50:44;;;;;;;27.05;5.00;;;22.50;64.20;;;;;;10389294;28;20034;-55
2022/07/09 12:55:46;;;;;;;16.95;4.00;;;22.50;64.60;;;;;;10364402;28;20030;-55
2022/07/09 13:00:47;;;;;;;19.42;3.80;;;22.50;64.30;;;;;;10391684;28;20107;-55
2022/07/09 13:05:48;;;;;;;21.25;3.70;;;22.60;64.60;;;;;;10389637;28;20030;-54
2022/07/09 13:10:48;;;;;;;20.25;3.63;;;22.60;64.60;;;;;;10387621;28;20114;-55
2022/07/09 13:15:51;;;;;;;19.83;3.78;;;22.60;64.60;;;;;;10385507;28;20551;-55
2022/07/09 13:20:51;;;;;;;14.65;3.45;;;22.50;64.60;;;;;;10377886;28;20596;-55
2022/07/09 13:25:52;;;;;;;11.98;4.53;;;22.60;64.60;;;;;;10372134;28;20040;-55
2022/07/09 13:30:53;;;;;;;7.70;2.83;;;22.50;64.50;;;;;;10376850;28;20044;-57
2022/07/09 13:35:54;;;;;;;17.13;3.00;;;22.50;64.60;;;;;;10387603;28;20049;-55
2022/07/09 13:40:55;;;;;;;11.80;2.72;;;22.60;64.70;;;;;;10396879;28;20465;-55
2022/07/09 13:45:58;;;;;;;12.40;2.50;;;22.50;64.10;;;;;;10396546;28;20034;-54
2022/07/09 13:51:00;;;;;;;5.20;2.20;;;22.50;64.40;;;;;;10401103;28;20029;-55
2022/07/09 13:56:00;;;;;;;8.45;2.10;;;22.50;64.30;;;;;;10390454;28;20030;-53
2022/07/09 14:01:02;;;;;;;8.40;2.28;;;22.40;64.00;;;;;;10394263;28;20060;-54
2022/07/09 14:06:03;;;;;;;5.18;2.10;;;22.40;63.70;;;;;;10367051;28;20036;-53
2022/07/09 14:11:04;;;;;;;9.93;2.53;;;22.40;63.60;;;;;;10378505;28;20022;-55
2022/07/09 14:16:05;;;;;;;8.18;2.50;;;22.40;63.20;;;;;;10367611;28;20034;-55
2022/07/09 14:21:06;;;;;;;10.10;2.55;;;22.40;63.20;;;;;;10406386;28;20029;-54
2022/07/09 14:26:06;;;;;;;41.00;8.30;;;22.30;63.20;;;;;;10408227;28;20040;-56
2022/07/09 14:31:07;;;;;;;31.05;6.75;;;22.40;63.80;;;;;;10383921;28;20025;-55
2022/07/09 14:36:08;;;;;;;33.00;5.65;;;22.40;64.00;;;;;;10379660;28;20053;-56
2022/07/09 14:41:08;;;;;;;29.48;5.97;;;22.40;64.10;;;;;;10373040;28;20545;-55
2022/07/09 14:46:09;;;;;;;46.28;7.57;;;22.40;64.30;;;;;;10376420;28;20056;-56
2022/07/09 14:51:10;;;;;;;37.70;6.55;;;22.40;64.70;;;;;;10397862;28;20401;-56
2022/07/09 14:56:11;;;;;;;29.05;5.30;;;22.40;64.30;;;;;;10371090;28;20030;-54
2022/07/09 15:01:12;;;;;;;37.00;6.38;;;22.40;64.20;;;;;;10382242;28;20355;-54
2022/07/09 15:06:13;;;;;;;32.95;6.63;;;22.50;64.50;;;;;;10378550;28;20029;-54
2022/07/09 15:11:14;;;;;;;23.30;4.65;;;22.50;64.30;;;;;;10394128;28;20057;-55
2022/07/09 15:16:15;;;;;;;33.08;6.65;;;22.40;63.90;;;;;;10395304;28;20116;-53
2022/07/09 15:21:17;;;;;;;20.10;4.95;;;22.40;63.70;;;;;;10382584;28;20025;-51
2022/07/09 15:26:17;;;;;;;73.95;10.88;;;22.40;63.40;;;;;;10375136;28;20045;-57
2022/07/09 15:31:25;;;;;;;61.55;9.90;;;22.40;61.90;;;;;;10370960;28;20029;-55
2022/07/09 15:36:25;;;;;;;71.53;10.02;;;22.40;61.80;;;;;;10404255;28;20499;-54
2022/07/09 15:41:26;;;;;;;55.63;9.10;;;22.40;61.00;;;;;;10387016;28;20112;-55
2022/07/09 15:46:27;;;;;;;31.08;5.03;;;22.30;60.80;;;;;;10398421;28;20120;-55
2022/07/09 15:51:28;;;;;;;19.83;3.60;;;22.30;60.40;;;;;;10410308;28;20424;-55
2022/07/09 15:56:28;;;;;;;16.65;3.75;;;22.30;59.90;;;;;;10412625;28;20030;-53
2022/07/09 16:01:30;;;;;;;18.17;2.63;;;22.30;62.00;;;;;;10373395;28;20025;-54
2022/07/09 16:06:31;;;;;;;14.27;3.42;;;22.40;60.90;;;;;;10386276;28;20038;-49
2022/07/09 16:16:51;;;;;;;4.93;2.03;;;22.40;60.10;;;;;;10371320;28;20041;-52
2022/07/09 16:21:52;;;;;;;4.95;1.95;;;22.40;59.30;;;;;;10371888;28;20413;-54
2022/07/09 16:26:52;;;;;;;10.23;2.10;;;22.30;59.20;;;;;;10379036;28;20443;-56
2022/07/09 16:31:53;;;;;;;6.93;2.05;;;22.30;59.00;;;;;;10387474;28;20378;-55
2022/07/09 16:36:54;;;;;;;5.07;2.22;;;22.30;57.90;;;;;;10384566;28;20050;-54
2022/07/09 16:41:56;;;;;;;4.03;1.58;;;22.30;59.00;;;;;;10384542;28;20113;-53
2022/07/09 16:46:56;;;;;;;3.30;1.48;;;22.30;59.20;;;;;;10393564;28;20025;-55
2022/07/09 16:51:57;;;;;;;6.70;2.10;;;22.30;57.70;;;;;;10415320;28;20108;-54
2022/07/09 16:56:58;;;;;;;6.05;1.52;;;22.30;56.90;;;;;;10373629;28;20033;-54
2022/07/09 17:01:58;;;;;;;8.90;2.45;;;22.30;57.50;;;;;;10397086;28;20017;-50
2022/07/09 17:06:59;;;;;;;4.00;2.13;;;22.20;56.50;;;;;;10391743;28;20029;-54
2022/07/09 17:12:00;;;;;;;3.13;1.30;;;22.30;56.20;;;;;;10381429;28;20033;-54
2022/07/09 17:17:00;;;;;;;4.75;1.30;;;22.30;56.80;;;;;;10385699;28;20118;-54
2022/07/09 17:22:01;;;;;;;3.75;1.73;;;22.30;56.50;;;;;;10409231;28;20035;-54
2022/07/09 17:27:02;;;;;;;9.57;2.13;;;22.20;55.60;;;;;;10383676;28;20029;-54
2022/07/09 17:32:03;;;;;;;3.70;1.63;;;22.20;54.70;;;;;;10381989;28;20525;-54
2022/07/09 17:37:04;;;;;;;9.82;2.20;;;22.10;54.10;;;;;;10391347;28;20049;-52
2022/07/09 17:42:05;;;;;;;5.80;2.00;;;22.10;53.70;;;;;;10383171;28;20560;-54
2022/07/09 17:47:05;;;;;;;4.78;2.17;;;22.10;53.30;;;;;;10366899;28;20522;-57
2022/07/09 17:52:06;;;;;;;7.18;2.05;;;22.10;53.30;;;;;;10393655;28;20116;-55
2022/07/09 17:57:08;;;;;;;7.47;1.90;;;22.10;53.90;;;;;;10392033;28;20508;-56
2022/07/09 18:02:08;;;;;;;5.22;1.77;;;22.10;55.10;;;;;;10400938;28;20037;-56
2022/07/09 18:07:10;;;;;;;3.90;1.48;;;22.20;54.60;;;;;;10380311;28;20037;-56
2022/07/09 18:12:11;;;;;;;9.18;1.98;;;22.20;54.10;;;;;;10408171;28;20105;-55
2022/07/09 18:17:12;;;;;;;5.07;1.55;;;22.20;54.50;;;;;;10391479;28;20115;-55
2022/07/09 18:22:12;;;;;;;7.00;1.70;;;22.20;54.40;;;;;;10390402;28;20113;-55
2022/07/09 18:27:13;;;;;;;4.68;1.65;;;22.20;54.60;;;;;;10409339;28;20160;-56
2022/07/09 18:32:14;;;;;;;4.75;1.52;;;22.10;54.80;;;;;;10388962;28;20074;-55
2022/07/09 18:37:14;;;;;;;4.60;1.40;;;22.20;54.80;;;;;;10383979;28;20504;-55
2022/07/09 18:42:15;;;;;;;5.07;1.83;;;22.20;55.50;;;;;;10410773;28;20059;-55
2022/07/09 18:47:16;;;;;;;4.60;1.88;;;22.10;55.60;;;;;;10372937;28;20029;-54
2022/07/09 18:52:17;;;;;;;8.15;2.30;;;22.20;55.90;;;;;;10397138;28;20165;-54
2022/07/09 18:57:18;;;;;;;6.30;1.52;;;22.20;56.00;;;;;;10377944;28;20026;-54
2022/07/09 19:02:19;;;;;;;5.72;1.10;;;22.20;56.00;;;;;;10401456;28;20037;-56
2022/07/09 19:07:21;;;;;;;3.35;1.15;;;22.10;56.10;;;;;;10408327;28;20032;-54
2022/07/09 19:12:21;;;;;;;5.35;1.08;;;22.10;56.00;;;;;;10385033;28;20025;-57
2022/07/09 19:17:22;;;;;;;3.65;0.90;;;22.10;56.20;;;;;;10384534;28;20060;-55
2022/07/09 19:22:23;;;;;;;3.85;1.13;;;22.10;56.30;;;;;;10365800;28;20121;-55
2022/07/09 19:27:23;;;;;;;2.70;1.30;;;22.10;57.00;;;;;;10366158;28;20033;-55
2022/07/09 19:37:44;;;;;;;3.20;1.20;;;22.10;56.60;;;;;;10392823;28;20082;-55
2022/07/09 19:42:45;;;;;;;3.55;0.98;;;22.10;56.80;;;;;;10370141;28;20522;-54
2022/07/09 19:47:46;;;;;;;2.53;1.00;;;22.10;56.80;;;;;;10391234;28;20037;-55
2022/07/09 19:52:46;;;;;;;4.03;1.50;;;22.10;56.90;;;;;;10398267;28;20251;-55
2022/07/09 19:57:47;;;;;;;1.95;0.70;;;22.10;56.90;;;;;;10384281;28;20040;-54
2022/07/09 20:02:48;;;;;;;3.63;0.90;;;22.10;56.90;;;;;;10378353;28;20038;-55
2022/07/09 20:07:49;;;;;;;3.90;1.52;;;22.10;57.00;;;;;;10379023;28;20035;-55
2022/07/09 20:12:49;;;;;;;2.05;0.88;;;22.10;57.00;;;;;;10390974;28;20034;-55
2022/07/09 20:17:50;;;;;;;3.30;1.33;;;22.00;57.00;;;;;;10388854;28;20144;-54
2022/07/09 20:22:51;;;;;;;1.98;1.00;;;22.10;57.10;;;;;;10386099;28;20029;-56
2022/07/09 20:27:52;;;;;;;5.50;1.40;;;22.10;57.30;;;;;;10419083;28;20033;-55
2022/07/09 20:32:52;;;;;;;4.10;0.90;;;22.00;57.20;;;;;;10399749;28;20029;-54
2022/07/09 20:37:53;;;;;;;4.30;1.40;;;22.00;57.30;;;;;;10399721;28;20045;-57
2022/07/09 20:42:54;;;;;;;2.50;0.80;;;22.10;57.30;;;;;;10404929;28;20608;-55
2022/07/09 20:47:54;;;;;;;3.80;1.00;;;22.00;57.30;;;;;;10391890;28;20025;-55
2022/07/09 20:52:58;;;;;;;2.92;1.25;;;22.00;57.40;;;;;;10381686;28;20039;-54
2022/07/09 20:58:00;;;;;;;4.20;1.60;;;22.00;57.40;;;;;;10387235;28;20095;-54
2022/07/09 21:03:00;;;;;;;3.90;1.15;;;22.00;57.40;;;;;;10388229;28;20064;-55
2022/07/09 21:08:01;;;;;;;3.67;1.10;;;22.00;57.50;;;;;;10389847;28;20746;-54
2022/07/09 21:13:02;;;;;;;4.10;1.10;;;22.00;57.50;;;;;;10385581;28;20030;-54
2022/07/09 21:23:22;;;;;;;3.03;1.20;;;22.00;57.50;;;;;;10389272;28;20034;-54
2022/07/09 21:28:23;;;;;;;3.90;1.38;;;22.00;57.60;;;;;;10388194;28;20600;-55
2022/07/09 21:33:24;;;;;;;5.10;1.30;;;22.00;57.60;;;;;;10383011;28;20030;-56
2022/07/09 21:38:25;;;;;;;7.22;2.13;;;22.00;58.30;;;;;;10370518;28;20045;-54
2022/07/09 21:43:25;;;;;;;3.47;1.90;;;22.00;57.70;;;;;;10370434;28;20073;-54
2022/07/09 21:48:26;;;;;;;3.40;1.48;;;22.00;57.70;;;;;;10387082;28;20405;-56
2022/07/09 21:53:27;;;;;;;2.15;1.15;;;22.00;57.80;;;;;;10383382;28;20033;-56
2022/07/09 21:58:27;;;;;;;2.22;0.80;;;22.00;57.70;;;;;;10396650;28;20116;-55
2022/07/09 22:03:29;;;;;;;4.50;1.60;;;22.00;57.80;;;;;;10396047;28;20045;-55
2022/07/09 22:08:29;;;;;;;3.17;1.17;;;22.00;57.80;;;;;;10409422;28;20024;-55
2022/07/09 22:13:30;;;;;;;3.92;0.90;;;21.90;57.90;;;;;;10377683;28;20048;-55
2022/07/09 22:18:31;;;;;;;1.70;0.80;;;22.00;57.90;;;;;;10386779;28;20128;-55
2022/07/09 22:23:31;;;;;;;2.05;0.85;;;21.90;57.90;;;;;;10402527;28;20803;-55
2022/07/09 22:28:32;;;;;;;4.47;1.05;;;21.90;58.00;;;;;;10367090;28;20021;-55
2022/07/09 22:33:33;;;;;;;1.48;0.70;;;21.90;58.00;;;;;;10367583;28;20091;-55
2022/07/09 22:38:33;;;;;;;1.60;0.70;;;21.90;57.90;;;;;;10367051;28;20497;-55
2022/07/09 22:43:34;;;;;;;1.50;0.80;;;21.90;58.00;;;;;;10379024;28;20385;-55
2022/07/09 22:48:35;;;;;;;1.92;0.77;;;21.90;57.80;;;;;;10390831;28;20085;-55
2022/07/09 22:53:35;;;;;;;2.70;1.17;;;21.90;57.80;;;;;;10368634;28;20481;-55
2022/07/09 22:58:36;;;;;;;2.00;0.70;;;21.90;57.80;;;;;;10367210;28;20146;-55
2022/07/09 23:03:37;;;;;;;1.58;0.80;;;21.90;57.90;;;;;;10383718;28;20026;-56
2022/07/09 23:08:56;;;;;;;1.90;0.80;;;21.90;57.90;;;;;;10373186;28;20112;-55
2022/07/09 23:13:58;;;;;;;1.27;0.60;;;21.90;57.90;;;;;;10366558;28;20112;-55
2022/07/09 23:19:04;;;;;;;2.42;1.08;;;21.90;58.00;;;;;;10367734;28;20056;-55
2022/07/09 23:24:05;;;;;;;3.03;1.08;;;21.90;58.00;;;;;;10363918;28;20030;-55
2022/07/09 23:29:06;;;;;;;1.95;1.05;;;21.90;58.10;;;;;;10366501;28;20054;-54
2022/07/09 23:34:07;;;;;;;1.58;0.70;;;21.90;58.70;;;;;;10367354;28;20033;-55
2022/07/09 23:39:07;;;;;;;0.85;0.60;;;21.90;58.10;;;;;;10370651;28;20046;-55
2022/07/09 23:44:08;;;;;;;3.13;0.90;;;21.90;58.10;;;;;;10375381;28;20029;-55
2022/07/09 23:49:09;;;;;;;2.65;1.38;;;21.90;58.70;;;;;;10382574;28;20084;-55
2022/07/09 23:54:10;;;;;;;2.75;1.20;;;21.80;58.00;;;;;;10415813;28;20109;-55
2022/07/09 23:59:11;;;;;;;2.30;1.50;;;21.90;58.10;;;;;;10394143;28;20465;-55
